sensor_id;sensor_type;location;lat;lon;timestamp;pressure;altitude;pressure_sealevel;temperature;humidity
15272;BME280;7737;51.578;7.268;2023-08-06T00:01:37;100111.84;;;15.75;100.00
15272;BME280;7737;51.578;7.268;2023-08-06T00:04:04;100109.50;;;15.70;100.00
15272;BME280;7737;51.578;7.268;2023-08-06T00:06:31;100114.00;;;15.81;100.00
15272;BME280;7737;51.578;7.268;2023-08-06T00:08:58;100119.03;;;15.86;100.00
15272;BME280;7737;51.578;7.268;2023-08-06T00:11:24;100116.94;;;15.89;100.00
15272;BME280;7737;51.578;7.268;2023-08-06T00:13:51;100120.84;;;15.96;100.00
15272;BME280;7737;51.578;7.268;2023-08-06T00:16:18;100119.59;;;15.89;100.00
15272;BME280;7737;51.578;7.268;2023-08-06T00:18:44;100118.63;;;16.01;100.00
15272;BME280;7737;51.578;7.268;2023-08-06T00:21:11;100118.38;;;16.04;100.00
15272;BME280;7737;51.578;7.268;2023-08-06T00:23:39;100118.53;;;15.80;100.00
15272;BME280;7737;51.578;7.268;2023-08-06T00:26:06;100106.09;;;15.79;100.00
15272;BME280;7737;51.578;7.268;2023-08-06T00:28:33;100097.72;;;15.62;100.00
15272;BME280;7737;51.578;7.268;2023-08-06T00:30:59;100101.38;;;15.61;100.00
15272;BME280;7737;51.578;7.268;2023-08-06T00:33:26;100107.94;;;15.68;100.00
15272;BME280;7737;51.578;7.268;2023-08-06T00:35:52;100105.63;;;15.63;100.00
15272;BME280;7737;51.578;7.268;2023-08-06T00:38:19;100101.00;;;15.76;100.00
15272;BME280;7737;51.578;7.268;2023-08-06T00:40:47;100102.00;;;15.64;100.00
15272;BME280;7737;51.578;7.268;2023-08-06T00:43:13;100108.44;;;15.62;100.00
15272;BME280;7737;51.578;7.268;2023-08-06T00:45:40;100110.00;;;15.75;100.00
15272;BME280;7737;51.578;7.268;2023-08-06T00:48:07;100113.28;;;15.90;100.00
15272;BME280;7737;51.578;7.268;2023-08-06T00:50:33;100109.25;;;15.84;100.00
15272;BME280;7737;51.578;7.268;2023-08-06T00:53:01;100110.84;;;15.76;100.00
15272;BME280;7737;51.578;7.268;2023-08-06T00:55:28;100101.84;;;15.88;100.00
15272;BME280;7737;51.578;7.268;2023-08-06T00:57:57;100100.03;;;15.77;100.00
15272;BME280;7737;51.578;7.268;2023-08-06T01:00:24;100103.66;;;15.99;100.00
15272;BME280;7737;51.578;7.268;2023-08-06T01:02:51;100102.81;;;15.87;100.00
15272;BME280;7737;51.578;7.268;2023-08-06T01:05:18;100094.75;;;15.87;100.00
15272;BME280;7737;51.578;7.268;2023-08-06T01:08:02;100092.56;;;15.81;100.00
15272;BME280;7737;51.578;7.268;2023-08-06T01:10:40;100089.88;;;15.92;100.00
15272;BME280;7737;51.578;7.268;2023-08-06T01:13:18;100079.69;;;15.75;100.00
15272;BME280;7737;51.578;7.268;2023-08-06T01:15:49;100076.41;;;15.71;100.00
15272;BME280;7737;51.578;7.268;2023-08-06T01:18:16;100071.03;;;15.82;100.00
15272;BME280;7737;51.578;7.268;2023-08-06T01:20:44;100077.50;;;15.69;100.00
15272;BME280;7737;51.578;7.268;2023-08-06T01:23:10;100072.84;;;15.71;100.00
15272;BME280;7737;51.578;7.268;2023-08-06T01:25:45;100077.00;;;15.75;100.00
15272;BME280;7737;51.578;7.268;2023-08-06T01:28:20;100071.25;;;15.91;100.00
15272;BME280;7737;51.578;7.268;2023-08-06T01:30:50;100065.06;;;15.68;100.00
15272;BME280;7737;51.578;7.268;2023-08-06T01:33:19;100069.94;;;15.63;100.00
15272;BME280;7737;51.578;7.268;2023-08-06T01:35:49;100066.31;;;15.64;100.00
15272;BME280;7737;51.578;7.268;2023-08-06T01:38:16;100058.25;;;15.64;100.00
15272;BME280;7737;51.578;7.268;2023-08-06T01:40:43;100062.38;;;15.79;100.00
15272;BME280;7737;51.578;7.268;2023-08-06T01:43:10;100068.19;;;15.84;100.00
15272;BME280;7737;51.578;7.268;2023-08-06T01:45:36;100053.38;;;15.80;100.00
15272;BME280;7737;51.578;7.268;2023-08-06T01:48:03;100060.19;;;15.73;100.00
15272;BME280;7737;51.578;7.268;2023-08-06T01:50:30;100058.97;;;15.66;100.00
15272;BME280;7737;51.578;7.268;2023-08-06T01:52:57;100057.78;;;15.70;100.00
15272;BME280;7737;51.578;7.268;2023-08-06T01:55:24;100050.78;;;15.78;100.00
15272;BME280;7737;51.578;7.268;2023-08-06T01:57:50;100058.72;;;15.80;100.00
15272;BME280;7737;51.578;7.268;2023-08-06T02:00:17;100066.88;;;15.67;100.00
15272;BME280;7737;51.578;7.268;2023-08-06T02:02:44;100062.13;;;15.71;100.00
15272;BME280;7737;51.578;7.268;2023-08-06T02:05:10;100054.81;;;15.73;100.00
15272;BME280;7737;51.578;7.268;2023-08-06T02:07:37;100058.97;;;15.77;100.00
15272;BME280;7737;51.578;7.268;2023-08-06T02:10:06;100050.22;;;15.75;100.00
15272;BME280;7737;51.578;7.268;2023-08-06T02:12:32;100046.28;;;15.79;100.00
15272;BME280;7737;51.578;7.268;2023-08-06T02:14:59;100053.59;;;15.77;100.00
15272;BME280;7737;51.578;7.268;2023-08-06T02:17:26;100048.25;;;15.77;100.00
15272;BME280;7737;51.578;7.268;2023-08-06T02:19:52;100040.69;;;15.71;100.00
15272;BME280;7737;51.578;7.268;2023-08-06T02:22:19;100047.78;;;15.72;100.00
15272;BME280;7737;51.578;7.268;2023-08-06T02:24:45;100043.13;;;15.74;100.00
15272;BME280;7737;51.578;7.268;2023-08-06T02:27:13;100033.72;;;15.91;100.00
15272;BME280;7737;51.578;7.268;2023-08-06T02:29:40;100033.34;;;15.84;100.00
15272;BME280;7737;51.578;7.268;2023-08-06T02:32:07;100034.84;;;15.77;100.00
15272;BME280;7737;51.578;7.268;2023-08-06T02:34:33;100026.19;;;15.73;100.00
15272;BME280;7737;51.578;7.268;2023-08-06T02:37:00;100028.63;;;15.76;100.00
15272;BME280;7737;51.578;7.268;2023-08-06T02:39:27;100016.72;;;15.69;100.00
15272;BME280;7737;51.578;7.268;2023-08-06T02:41:53;100020.25;;;15.70;100.00
15272;BME280;7737;51.578;7.268;2023-08-06T02:44:21;100020.50;;;15.67;100.00
15272;BME280;7737;51.578;7.268;2023-08-06T02:46:48;100010.38;;;15.70;100.00
15272;BME280;7737;51.578;7.268;2023-08-06T02:49:14;100012.94;;;15.72;100.00
15272;BME280;7737;51.578;7.268;2023-08-06T02:51:41;100008.94;;;15.66;100.00
15272;BME280;7737;51.578;7.268;2023-08-06T02:54:07;100011.84;;;15.63;100.00
15272;BME280;7737;51.578;7.268;2023-08-06T02:56:34;100001.50;;;15.70;100.00
15272;BME280;7737;51.578;7.268;2023-08-06T02:59:00;99998.59;;;15.62;100.00
15272;BME280;7737;51.578;7.268;2023-08-06T03:01:28;99995.63;;;15.65;100.00
15272;BME280;7737;51.578;7.268;2023-08-06T03:03:55;99989.56;;;15.63;100.00
15272;BME280;7737;51.578;7.268;2023-08-06T03:06:21;99986.88;;;15.63;100.00
15272;BME280;7737;51.578;7.268;2023-08-06T03:08:48;99984.50;;;15.49;100.00
15272;BME280;7737;51.578;7.268;2023-08-06T03:11:15;99983.25;;;15.53;100.00
15272;BME280;7737;51.578;7.268;2023-08-06T03:13:41;99987.88;;;15.62;100.00
15272;BME280;7737;51.578;7.268;2023-08-06T03:16:08;99981.31;;;15.55;100.00
15272;BME280;7737;51.578;7.268;2023-08-06T03:18:35;99980.09;;;15.59;100.00
15272;BME280;7737;51.578;7.268;2023-08-06T03:21:02;99970.81;;;15.52;100.00
15272;BME280;7737;51.578;7.268;2023-08-06T03:23:29;99974.25;;;15.43;100.00
15272;BME280;7737;51.578;7.268;2023-08-06T03:25:55;99963.69;;;15.30;100.00
15272;BME280;7737;51.578;7.268;2023-08-06T03:28:22;99964.50;;;15.31;100.00
15272;BME280;7737;51.578;7.268;2023-08-06T03:30:58;99973.78;;;15.27;100.00
15272;BME280;7737;51.578;7.268;2023-08-06T03:33:25;99970.88;;;15.07;100.00
15272;BME280;7737;51.578;7.268;2023-08-06T03:35:53;99980.72;;;15.18;100.00
15272;BME280;7737;51.578;7.268;2023-08-06T03:38:19;99969.91;;;15.19;100.00
15272;BME280;7737;51.578;7.268;2023-08-06T03:40:46;99977.94;;;15.19;100.00
15272;BME280;7737;51.578;7.268;2023-08-06T03:43:13;99968.44;;;15.04;100.00
15272;BME280;7737;51.578;7.268;2023-08-06T03:45:40;99974.88;;;15.02;100.00
15272;BME280;7737;51.578;7.268;2023-08-06T03:48:06;99972.81;;;15.05;100.00
15272;BME280;7737;51.578;7.268;2023-08-06T03:50:33;99965.50;;;14.96;100.00
15272;BME280;7737;51.578;7.268;2023-08-06T03:53:01;99963.22;;;14.92;100.00
15272;BME280;7737;51.578;7.268;2023-08-06T03:55:28;99955.19;;;14.92;100.00
15272;BME280;7737;51.578;7.268;2023-08-06T03:57:54;99955.91;;;14.94;100.00
15272;BME280;7737;51.578;7.268;2023-08-06T04:00:21;99952.88;;;14.87;100.00
15272;BME280;7737;51.578;7.268;2023-08-06T04:02:48;99949.81;;;14.81;100.00
15272;BME280;7737;51.578;7.268;2023-08-06T04:05:15;99952.16;;;14.74;100.00
15272;BME280;7737;51.578;7.268;2023-08-06T04:07:42;99949.06;;;14.56;100.00
15272;BME280;7737;51.578;7.268;2023-08-06T04:10:10;99951.03;;;14.66;100.00
15272;BME280;7737;51.578;7.268;2023-08-06T04:12:37;99948.22;;;14.67;100.00
15272;BME280;7737;51.578;7.268;2023-08-06T04:15:05;99949.09;;;14.79;100.00
15272;BME280;7737;51.578;7.268;2023-08-06T04:17:32;99950.44;;;14.73;100.00
15272;BME280;7737;51.578;7.268;2023-08-06T04:19:58;99957.38;;;14.76;100.00
15272;BME280;7737;51.578;7.268;2023-08-06T04:22:25;99948.00;;;14.70;100.00
15272;BME280;7737;51.578;7.268;2023-08-06T04:24:52;99946.41;;;14.56;100.00
15272;BME280;7737;51.578;7.268;2023-08-06T04:27:20;99948.47;;;14.53;100.00
15272;BME280;7737;51.578;7.268;2023-08-06T04:29:46;99947.50;;;14.54;100.00
15272;BME280;7737;51.578;7.268;2023-08-06T04:32:13;99945.66;;;14.43;100.00
15272;BME280;7737;51.578;7.268;2023-08-06T04:34:39;99949.09;;;14.45;100.00
15272;BME280;7737;51.578;7.268;2023-08-06T04:37:06;99945.81;;;14.53;100.00
15272;BME280;7737;51.578;7.268;2023-08-06T04:39:33;99952.84;;;14.54;100.00
15272;BME280;7737;51.578;7.268;2023-08-06T04:41:59;99953.31;;;14.59;100.00
15272;BME280;7737;51.578;7.268;2023-08-06T04:44:27;99947.28;;;14.68;100.00
15272;BME280;7737;51.578;7.268;2023-08-06T04:46:53;99944.72;;;14.67;100.00
15272;BME280;7737;51.578;7.268;2023-08-06T04:49:20;99947.28;;;14.68;100.00
15272;BME280;7737;51.578;7.268;2023-08-06T04:51:47;99946.06;;;14.83;100.00
15272;BME280;7737;51.578;7.268;2023-08-06T04:54:14;99951.41;;;14.83;100.00
15272;BME280;7737;51.578;7.268;2023-08-06T04:56:40;99959.66;;;14.80;100.00
15272;BME280;7737;51.578;7.268;2023-08-06T04:59:07;99951.41;;;14.83;100.00
15272;BME280;7737;51.578;7.268;2023-08-06T05:01:35;99957.00;;;14.91;100.00
15272;BME280;7737;51.578;7.268;2023-08-06T05:04:01;99957.75;;;14.82;100.00
15272;BME280;7737;51.578;7.268;2023-08-06T05:06:28;99960.53;;;15.03;100.00
15272;BME280;7737;51.578;7.268;2023-08-06T05:08:54;99956.00;;;15.14;100.00
15272;BME280;7737;51.578;7.268;2023-08-06T05:11:21;99962.22;;;15.15;100.00
15272;BME280;7737;51.578;7.268;2023-08-06T05:13:49;99958.91;;;15.34;100.00
15272;BME280;7737;51.578;7.268;2023-08-06T05:16:15;99966.47;;;15.29;100.00
15272;BME280;7737;51.578;7.268;2023-08-06T05:18:43;99976.44;;;15.38;100.00
15272;BME280;7737;51.578;7.268;2023-08-06T05:21:10;99966.06;;;15.44;100.00
15272;BME280;7737;51.578;7.268;2023-08-06T05:23:36;99978.97;;;15.61;100.00
15272;BME280;7737;51.578;7.268;2023-08-06T05:26:03;99981.88;;;15.69;100.00
15272;BME280;7737;51.578;7.268;2023-08-06T05:28:30;99985.88;;;15.75;100.00
15272;BME280;7737;51.578;7.268;2023-08-06T05:30:56;99976.28;;;15.72;100.00
15272;BME280;7737;51.578;7.268;2023-08-06T05:33:23;99977.88;;;15.64;100.00
15272;BME280;7737;51.578;7.268;2023-08-06T05:35:51;99984.19;;;15.74;100.00
15272;BME280;7737;51.578;7.268;2023-08-06T05:38:18;99983.81;;;15.67;100.00
15272;BME280;7737;51.578;7.268;2023-08-06T05:40:44;99984.44;;;15.71;100.00
15272;BME280;7737;51.578;7.268;2023-08-06T05:43:11;99985.97;;;15.84;100.00
15272;BME280;7737;51.578;7.268;2023-08-06T05:45:37;99987.31;;;15.79;100.00
15272;BME280;7737;51.578;7.268;2023-08-06T05:48:04;99987.50;;;15.98;100.00
15272;BME280;7737;51.578;7.268;2023-08-06T05:50:31;99991.41;;;15.94;100.00
15272;BME280;7737;51.578;7.268;2023-08-06T05:52:59;100001.34;;;16.14;100.00
15272;BME280;7737;51.578;7.268;2023-08-06T05:55:25;100000.22;;;16.17;100.00
15272;BME280;7737;51.578;7.268;2023-08-06T05:57:52;99998.53;;;16.36;100.00
15272;BME280;7737;51.578;7.268;2023-08-06T06:00:20;99994.66;;;16.29;100.00
15272;BME280;7737;51.578;7.268;2023-08-06T06:02:47;99996.19;;;16.43;100.00
15272;BME280;7737;51.578;7.268;2023-08-06T06:05:13;99996.59;;;16.38;100.00
15272;BME280;7737;51.578;7.268;2023-08-06T06:07:40;99995.78;;;16.48;100.00
15272;BME280;7737;51.578;7.268;2023-08-06T06:10:09;99991.34;;;16.58;100.00
15272;BME280;7737;51.578;7.268;2023-08-06T06:12:35;99988.88;;;16.66;100.00
15272;BME280;7737;51.578;7.268;2023-08-06T06:15:02;99997.59;;;16.47;100.00
15272;BME280;7737;51.578;7.268;2023-08-06T06:17:29;99991.94;;;16.40;100.00
15272;BME280;7737;51.578;7.268;2023-08-06T06:19:55;100005.41;;;16.50;100.00
15272;BME280;7737;51.578;7.268;2023-08-06T06:22:22;99994.09;;;16.47;100.00
15272;BME280;7737;51.578;7.268;2023-08-06T06:24:48;99993.97;;;16.69;100.00
15272;BME280;7737;51.578;7.268;2023-08-06T06:27:16;99990.38;;;16.79;100.00
15272;BME280;7737;51.578;7.268;2023-08-06T06:29:43;99990.38;;;16.59;100.00
15272;BME280;7737;51.578;7.268;2023-08-06T06:32:10;99982.56;;;16.76;100.00
15272;BME280;7737;51.578;7.268;2023-08-06T06:34:36;99981.81;;;16.95;100.00
15272;BME280;7737;51.578;7.268;2023-08-06T06:37:03;99974.84;;;16.83;100.00
15272;BME280;7737;51.578;7.268;2023-08-06T06:39:30;99966.84;;;16.92;100.00
15272;BME280;7737;51.578;7.268;2023-08-06T06:41:57;99975.22;;;16.99;100.00
15272;BME280;7737;51.578;7.268;2023-08-06T06:44:24;99966.88;;;17.42;100.00
15272;BME280;7737;51.578;7.268;2023-08-06T06:46:51;99962.06;;;17.45;100.00
15272;BME280;7737;51.578;7.268;2023-08-06T06:49:18;99967.16;;;17.48;100.00
15272;BME280;7737;51.578;7.268;2023-08-06T06:51:44;99958.88;;;17.21;100.00
15272;BME280;7737;51.578;7.268;2023-08-06T06:54:11;99958.53;;;17.45;100.00
15272;BME280;7737;51.578;7.268;2023-08-06T06:56:38;99939.50;;;17.67;100.00
15272;BME280;7737;51.578;7.268;2023-08-06T06:59:04;99939.34;;;17.69;100.00
15272;BME280;7737;51.578;7.268;2023-08-06T07:01:32;99939.66;;;17.85;100.00
15272;BME280;7737;51.578;7.268;2023-08-06T07:03:59;99931.16;;;17.60;100.00
15272;BME280;7737;51.578;7.268;2023-08-06T07:06:29;99929.75;;;17.76;100.00
15272;BME280;7737;51.578;7.268;2023-08-06T07:08:56;99923.66;;;18.12;100.00
15272;BME280;7737;51.578;7.268;2023-08-06T07:11:23;99917.72;;;18.18;100.00
15272;BME280;7737;51.578;7.268;2023-08-06T07:13:50;99911.31;;;18.29;100.00
15272;BME280;7737;51.578;7.268;2023-08-06T07:16:22;99907.50;;;18.12;100.00
15272;BME280;7737;51.578;7.268;2023-08-06T07:18:51;99908.06;;;18.25;100.00
15272;BME280;7737;51.578;7.268;2023-08-06T07:21:17;99910.63;;;18.07;100.00
15272;BME280;7737;51.578;7.268;2023-08-06T07:23:44;99894.22;;;18.10;100.00
15272;BME280;7737;51.578;7.268;2023-08-06T07:26:10;99897.03;;;18.09;100.00
15272;BME280;7737;51.578;7.268;2023-08-06T07:28:37;99907.25;;;17.86;100.00
15272;BME280;7737;51.578;7.268;2023-08-06T07:31:03;99901.75;;;17.78;100.00
15272;BME280;7737;51.578;7.268;2023-08-06T07:33:30;99906.53;;;18.03;100.00
15272;BME280;7737;51.578;7.268;2023-08-06T07:35:58;99905.94;;;18.19;100.00
15272;BME280;7737;51.578;7.268;2023-08-06T07:38:25;99904.44;;;17.97;100.00
15272;BME280;7737;51.578;7.268;2023-08-06T07:40:53;99918.72;;;18.07;100.00
15272;BME280;7737;51.578;7.268;2023-08-06T07:43:20;99919.97;;;18.13;100.00
15272;BME280;7737;51.578;7.268;2023-08-06T07:45:47;99909.75;;;18.16;100.00
15272;BME280;7737;51.578;7.268;2023-08-06T07:48:13;99909.47;;;18.19;100.00
15272;BME280;7737;51.578;7.268;2023-08-06T07:50:40;99915.59;;;18.02;100.00
15272;BME280;7737;51.578;7.268;2023-08-06T07:53:08;99914.31;;;18.16;100.00
15272;BME280;7737;51.578;7.268;2023-08-06T07:55:34;99913.31;;;18.17;100.00
15272;BME280;7737;51.578;7.268;2023-08-06T07:58:01;99916.56;;;18.11;100.00
15272;BME280;7737;51.578;7.268;2023-08-06T08:00:27;99909.19;;;18.22;100.00
15272;BME280;7737;51.578;7.268;2023-08-06T08:02:54;99914.25;;;18.35;100.00
15272;BME280;7737;51.578;7.268;2023-08-06T08:05:20;99911.31;;;18.48;100.00
15272;BME280;7737;51.578;7.268;2023-08-06T08:07:47;99916.41;;;18.22;100.00
15272;BME280;7737;51.578;7.268;2023-08-06T08:10:15;99916.00;;;18.17;100.00
15272;BME280;7737;51.578;7.268;2023-08-06T08:12:41;99916.09;;;18.54;100.00
15272;BME280;7737;51.578;7.268;2023-08-06T08:15:09;99909.44;;;18.48;100.00
15272;BME280;7737;51.578;7.268;2023-08-06T08:17:36;99908.72;;;18.46;100.00
15272;BME280;7737;51.578;7.268;2023-08-06T08:20:03;99910.91;;;18.14;100.00
15272;BME280;7737;51.578;7.268;2023-08-06T08:22:30;99908.06;;;18.25;100.00
15272;BME280;7737;51.578;7.268;2023-08-06T08:24:56;99917.16;;;18.24;100.00
15272;BME280;7737;51.578;7.268;2023-08-06T08:27:24;99903.50;;;18.35;100.00
15272;BME280;7737;51.578;7.268;2023-08-06T08:29:51;99914.00;;;18.29;100.00
15272;BME280;7737;51.578;7.268;2023-08-06T08:32:18;99922.34;;;18.35;100.00
15272;BME280;7737;51.578;7.268;2023-08-06T08:34:44;99911.44;;;18.27;100.00
15272;BME280;7737;51.578;7.268;2023-08-06T08:37:11;99915.44;;;18.23;100.00
15272;BME280;7737;51.578;7.268;2023-08-06T08:39:37;99908.63;;;18.29;100.00
15272;BME280;7737;51.578;7.268;2023-08-06T08:42:05;99915.16;;;18.26;100.00
15272;BME280;7737;51.578;7.268;2023-08-06T08:44:34;99916.25;;;18.33;100.00
15272;BME280;7737;51.578;7.268;2023-08-06T08:47:04;99912.59;;;18.34;100.00
15272;BME280;7737;51.578;7.268;2023-08-06T08:49:32;99912.53;;;18.53;100.00
15272;BME280;7737;51.578;7.268;2023-08-06T08:52:02;99914.50;;;18.70;100.00
15272;BME280;7737;51.578;7.268;2023-08-06T08:54:31;99916.31;;;18.70;100.00
15272;BME280;7737;51.578;7.268;2023-08-06T08:56:59;99909.97;;;18.61;100.00
15272;BME280;7737;51.578;7.268;2023-08-06T08:59:26;99920.84;;;18.69;100.00
15272;BME280;7737;51.578;7.268;2023-08-06T09:01:54;99909.84;;;18.53;100.00
15272;BME280;7737;51.578;7.268;2023-08-06T09:04:21;99916.50;;;18.59;100.00
15272;BME280;7737;51.578;7.268;2023-08-06T09:06:50;99914.00;;;18.19;100.00
15272;BME280;7737;51.578;7.268;2023-08-06T09:09:22;99924.81;;;18.00;100.00
15272;BME280;7737;51.578;7.268;2023-08-06T09:11:51;99926.06;;;17.57;100.00
15272;BME280;7737;51.578;7.268;2023-08-06T09:14:18;99929.03;;;17.64;100.00
15272;BME280;7737;51.578;7.268;2023-08-06T09:16:45;99937.78;;;17.56;100.00
15272;BME280;7737;51.578;7.268;2023-08-06T09:19:14;99942.97;;;17.48;100.00
15272;BME280;7737;51.578;7.268;2023-08-06T09:21:42;99941.22;;;17.78;100.00
15272;BME280;7737;51.578;7.268;2023-08-06T09:24:10;99943.75;;;17.79;100.00
15272;BME280;7737;51.578;7.268;2023-08-06T09:26:37;99951.41;;;17.84;100.00
15272;BME280;7737;51.578;7.268;2023-08-06T09:29:08;99954.66;;;17.78;100.00
15272;BME280;7737;51.578;7.268;2023-08-06T09:31:40;99954.69;;;17.47;100.00
15272;BME280;7737;51.578;7.268;2023-08-06T09:34:11;99960.84;;;17.69;100.00
15272;BME280;7737;51.578;7.268;2023-08-06T09:36:41;99956.78;;;17.84;100.00
15272;BME280;7737;51.578;7.268;2023-08-06T09:39:12;99960.31;;;17.65;100.00
15272;BME280;7737;51.578;7.268;2023-08-06T09:41:39;99958.13;;;17.49;100.00
15272;BME280;7737;51.578;7.268;2023-08-06T09:44:15;99965.56;;;17.86;100.00
15272;BME280;7737;51.578;7.268;2023-08-06T09:46:42;99965.28;;;18.17;100.00
15272;BME280;7737;51.578;7.268;2023-08-06T09:49:09;99967.97;;;18.37;100.00
15272;BME280;7737;51.578;7.268;2023-08-06T09:51:36;99968.69;;;18.10;100.00
15272;BME280;7737;51.578;7.268;2023-08-06T09:54:07;99973.38;;;18.08;100.00
15272;BME280;7737;51.578;7.268;2023-08-06T09:56:34;99968.69;;;18.10;100.00
15272;BME280;7737;51.578;7.268;2023-08-06T09:59:04;99966.69;;;18.50;100.00
15272;BME280;7737;51.578;7.268;2023-08-06T10:01:32;99959.03;;;18.36;100.00
15272;BME280;7737;51.578;7.268;2023-08-06T10:03:59;99970.50;;;18.57;100.00
15272;BME280;7737;51.578;7.268;2023-08-06T10:06:28;99966.81;;;18.58;100.00
15272;BME280;7737;51.578;7.268;2023-08-06T10:08:56;99969.44;;;18.77;100.00
15272;BME280;7737;51.578;7.268;2023-08-06T10:11:24;99966.63;;;18.69;100.00
15272;BME280;7737;51.578;7.268;2023-08-06T10:13:54;99958.66;;;18.77;100.00
15272;BME280;7737;51.578;7.268;2023-08-06T10:16:22;99959.88;;;19.02;100.00
15272;BME280;7737;51.578;7.268;2023-08-06T10:18:49;99949.53;;;18.98;100.00
15272;BME280;7737;51.578;7.268;2023-08-06T10:21:16;99956.81;;;19.24;100.00
15272;BME280;7737;51.578;7.268;2023-08-06T10:23:43;99950.16;;;19.46;100.00
15272;BME280;7737;51.578;7.268;2023-08-06T10:26:09;99953.09;;;19.25;100.00
15272;BME280;7737;51.578;7.268;2023-08-06T10:28:39;99945.97;;;19.34;100.00
15272;BME280;7737;51.578;7.268;2023-08-06T10:31:05;99943.09;;;19.80;100.00
15272;BME280;7737;51.578;7.268;2023-08-06T10:33:42;99939.81;;;19.86;100.00
15272;BME280;7737;51.578;7.268;2023-08-06T10:36:10;99933.38;;;20.23;100.00
15272;BME280;7737;51.578;7.268;2023-08-06T10:38:44;99940.50;;;20.24;100.00
15272;BME280;7737;51.578;7.268;2023-08-06T10:41:15;99927.63;;;20.00;100.00
15272;BME280;7737;51.578;7.268;2023-08-06T10:43:47;99927.78;;;19.98;100.00
15272;BME280;7737;51.578;7.268;2023-08-06T10:46:22;99929.97;;;19.23;100.00
15272;BME280;7737;51.578;7.268;2023-08-06T10:48:49;99923.56;;;19.96;100.00
15272;BME280;7737;51.578;7.268;2023-08-06T10:51:15;99920.63;;;20.25;100.00
15272;BME280;7737;51.578;7.268;2023-08-06T10:53:44;99915.00;;;20.44;100.00
15272;BME280;7737;51.578;7.268;2023-08-06T10:56:14;99919.28;;;20.11;100.00
15272;BME280;7737;51.578;7.268;2023-08-06T10:58:41;99913.06;;;19.75;100.00
15272;BME280;7737;51.578;7.268;2023-08-06T11:01:09;99904.34;;;20.17;100.00
15272;BME280;7737;51.578;7.268;2023-08-06T11:03:36;99909.00;;;20.76;100.00
15272;BME280;7737;51.578;7.268;2023-08-06T11:06:03;99909.25;;;20.98;100.00
15272;BME280;7737;51.578;7.268;2023-08-06T11:08:33;99908.72;;;20.95;100.00
15272;BME280;7737;51.578;7.268;2023-08-06T11:11:08;99908.31;;;20.82;100.00
15272;BME280;7737;51.578;7.268;2023-08-06T11:13:36;99907.19;;;20.92;100.00
15272;BME280;7737;51.578;7.268;2023-08-06T11:16:03;99897.84;;;20.79;100.00
15272;BME280;7737;51.578;7.268;2023-08-06T11:18:31;99898.50;;;20.73;100.00
15272;BME280;7737;51.578;7.268;2023-08-06T11:20:58;99899.88;;;21.10;100.00
15272;BME280;7737;51.578;7.268;2023-08-06T11:23:26;99905.50;;;21.25;100.00
15272;BME280;7737;51.578;7.268;2023-08-06T11:25:53;99896.66;;;21.57;100.00
15272;BME280;7737;51.578;7.268;2023-08-06T11:28:20;99895.19;;;21.20;100.00
15272;BME280;7737;51.578;7.268;2023-08-06T11:30:47;99893.78;;;21.08;100.00
15272;BME280;7737;51.578;7.268;2023-08-06T11:33:14;99893.78;;;21.08;100.00
15272;BME280;7737;51.578;7.268;2023-08-06T11:35:42;99887.09;;;20.95;100.00
15272;BME280;7737;51.578;7.268;2023-08-06T11:38:09;99894.06;;;21.31;100.00
15272;BME280;7737;51.578;7.268;2023-08-06T11:40:35;99901.47;;;21.29;100.00
15272;BME280;7737;51.578;7.268;2023-08-06T11:43:02;99905.63;;;21.07;100.00
15272;BME280;7737;51.578;7.268;2023-08-06T11:45:29;99905.59;;;20.48;100.00
15272;BME280;7737;51.578;7.268;2023-08-06T11:47:55;99914.44;;;20.15;100.00
15272;BME280;7737;51.578;7.268;2023-08-06T11:50:23;99915.28;;;19.97;100.00
15272;BME280;7737;51.578;7.268;2023-08-06T11:52:52;99922.81;;;19.41;100.00
15272;BME280;7737;51.578;7.268;2023-08-06T11:55:23;99924.22;;;19.80;100.00
15272;BME280;7737;51.578;7.268;2023-08-06T11:57:50;99941.94;;;19.65;100.00
15272;BME280;7737;51.578;7.268;2023-08-06T12:00:17;99942.13;;;19.64;100.00
15272;BME280;7737;51.578;7.268;2023-08-06T12:02:46;99947.94;;;19.41;100.00
15272;BME280;7737;51.578;7.268;2023-08-06T12:05:15;99946.53;;;19.82;100.00
15272;BME280;7737;51.578;7.268;2023-08-06T12:07:43;99951.50;;;19.60;100.00
15272;BME280;7737;51.578;7.268;2023-08-06T12:10:12;99965.25;;;19.39;100.00
15272;BME280;7737;51.578;7.268;2023-08-06T12:12:39;99971.00;;;19.17;100.00
15272;BME280;7737;51.578;7.268;2023-08-06T12:15:07;99981.59;;;19.37;100.00
15272;BME280;7737;51.578;7.268;2023-08-06T12:17:35;99983.00;;;18.95;100.00
15272;BME280;7737;51.578;7.268;2023-08-06T12:20:02;99982.75;;;18.89;100.00
15272;BME280;7737;51.578;7.268;2023-08-06T12:22:29;99986.75;;;18.75;100.00
15272;BME280;7737;51.578;7.268;2023-08-06T12:25:00;99996.72;;;18.55;100.00
15272;BME280;7737;51.578;7.268;2023-08-06T12:27:29;99995.44;;;18.50;100.00
15272;BME280;7737;51.578;7.268;2023-08-06T12:29:55;100008.06;;;18.49;100.00
15272;BME280;7737;51.578;7.268;2023-08-06T12:32:22;100008.03;;;18.11;100.00
15272;BME280;7737;51.578;7.268;2023-08-06T12:34:48;100010.28;;;18.06;100.00
15272;BME280;7737;51.578;7.268;2023-08-06T12:37:15;100011.72;;;18.10;100.00
15272;BME280;7737;51.578;7.268;2023-08-06T12:39:41;100015.41;;;17.99;100.00
15272;BME280;7737;51.578;7.268;2023-08-06T12:42:08;100026.38;;;17.68;100.00
15272;BME280;7737;51.578;7.268;2023-08-06T12:44:37;100028.22;;;17.67;100.00
15272;BME280;7737;51.578;7.268;2023-08-06T12:47:03;100030.09;;;17.86;100.00
15272;BME280;7737;51.578;7.268;2023-08-06T12:49:30;100040.91;;;17.55;100.00
15272;BME280;7737;51.578;7.268;2023-08-06T12:51:59;100039.03;;;17.16;100.00
15272;BME280;7737;51.578;7.268;2023-08-06T12:54:26;100048.56;;;16.99;100.00
15272;BME280;7737;51.578;7.268;2023-08-06T12:56:53;100051.91;;;16.92;100.00
15272;BME280;7737;51.578;7.268;2023-08-06T12:59:19;100054.31;;;16.95;100.00